sensor_id;sensor_type;location;lat;lon;timestamp;pressure;altitude;pressure_sealevel;temperature;humidity
2397;BME280;1209;48.410;9.054;2024-01-15T00:01:58;95217.41;;;-1.31;100.00
2397;BME280;1209;48.410;9.054;2024-01-15T00:04:24;95218.47;;;-1.33;100.00
2397;BME280;1209;48.410;9.054;2024-01-15T00:06:49;95207.97;;;-1.30;100.00
2397;BME280;1209;48.410;9.054;2024-01-15T00:09:16;95201.25;;;-1.31;100.00
2397;BME280;1209;48.410;9.054;2024-01-15T00:11:42;95205.72;;;-1.23;100.00
2397;BME280;1209;48.410;9.054;2024-01-15T00:14:08;95208.94;;;-1.21;100.00
2397;BME280;1209;48.410;9.054;2024-01-15T00:16:33;95208.56;;;-1.17;100.00
2397;BME280;1209;48.410;9.054;2024-01-15T00:18:58;95211.81;;;-1.15;100.00
2397;BME280;1209;48.410;9.054;2024-01-15T00:21:24;95209.25;;;-1.15;100.00
2397;BME280;1209;48.410;9.054;2024-01-15T00:23:49;95213.56;;;-1.15;100.00
2397;BME280;1209;48.410;9.054;2024-01-15T00:26:14;95210.59;;;-1.11;100.00
2397;BME280;1209;48.410;9.054;2024-01-15T00:28:40;95220.97;;;-1.12;100.00
2397;BME280;1209;48.410;9.054;2024-01-15T00:31:05;95230.84;;;-1.08;100.00
2397;BME280;1209;48.410;9.054;2024-01-15T00:33:31;95215.44;;;-1.17;100.00
2397;BME280;1209;48.410;9.054;2024-01-15T00:35:56;95220.03;;;-1.11;100.00
2397;BME280;1209;48.410;9.054;2024-01-15T00:38:21;95214.38;;;-1.15;100.00
2397;BME280;1209;48.410;9.054;2024-01-15T00:40:47;95218.41;;;-1.12;100.00
2397;BME280;1209;48.410;9.054;2024-01-15T00:43:12;95217.06;;;-1.16;100.00
2397;BME280;1209;48.410;9.054;2024-01-15T00:45:37;95225.38;;;-1.24;100.00
2397;BME280;1209;48.410;9.054;2024-01-15T00:48:03;95220.94;;;-1.22;100.00
2397;BME280;1209;48.410;9.054;2024-01-15T00:50:29;95221.50;;;-1.18;100.00
2397;BME280;1209;48.410;9.054;2024-01-15T00:52:54;95218.38;;;-1.22;100.00
2397;BME280;1209;48.410;9.054;2024-01-15T00:55:20;95213.13;;;-1.20;100.00
2397;BME280;1209;48.410;9.054;2024-01-15T00:57:45;95213.13;;;-1.20;100.00
2397;BME280;1209;48.410;9.054;2024-01-15T01:00:11;95206.38;;;-1.21;100.00
2397;BME280;1209;48.410;9.054;2024-01-15T01:02:36;95202.22;;;-1.22;100.00
2397;BME280;1209;48.410;9.054;2024-01-15T01:05:02;95202.47;;;-1.25;100.00
2397;BME280;1209;48.410;9.054;2024-01-15T01:07:28;95201.69;;;-1.16;100.00
2397;BME280;1209;48.410;9.054;2024-01-15T01:09:53;95197.50;;;-1.17;100.00
2397;BME280;1209;48.410;9.054;2024-01-15T01:12:19;95194.69;;;-1.14;100.00
2397;BME280;1209;48.410;9.054;2024-01-15T01:14:44;95189.81;;;-1.17;100.00
2397;BME280;1209;48.410;9.054;2024-01-15T01:17:09;95194.28;;;-1.19;100.00
2397;BME280;1209;48.410;9.054;2024-01-15T01:19:35;95194.25;;;-1.29;100.00
2397;BME280;1209;48.410;9.054;2024-01-15T01:22:00;95200.88;;;-1.17;100.00
2397;BME280;1209;48.410;9.054;2024-01-15T01:24:25;95198.69;;;-1.31;100.00
2397;BME280;1209;48.410;9.054;2024-01-15T01:26:50;95206.25;;;-1.20;100.00
2397;BME280;1209;48.410;9.054;2024-01-15T01:29:16;95205.19;;;-1.17;100.00
2397;BME280;1209;48.410;9.054;2024-01-15T01:31:45;95205.75;;;-1.14;100.00
2397;BME280;1209;48.410;9.054;2024-01-15T01:34:13;95206.94;;;-1.18;100.00
2397;BME280;1209;48.410;9.054;2024-01-15T01:36:39;95207.09;;;-1.10;100.00
2397;BME280;1209;48.410;9.054;2024-01-15T01:39:04;95206.81;;;-1.16;100.00
2397;BME280;1209;48.410;9.054;2024-01-15T01:41:30;95216.25;;;-1.17;100.00
2397;BME280;1209;48.410;9.054;2024-01-15T01:43:55;95213.00;;;-1.19;100.00
2397;BME280;1209;48.410;9.054;2024-01-15T01:46:21;95207.63;;;-1.16;100.00
2397;BME280;1209;48.410;9.054;2024-01-15T01:48:46;95207.63;;;-1.16;100.00
2397;BME280;1209;48.410;9.054;2024-01-15T01:51:13;95206.44;;;-1.12;100.00
2397;BME280;1209;48.410;9.054;2024-01-15T01:53:39;95199.38;;;-1.19;100.00
2397;BME280;1209;48.410;9.054;2024-01-15T01:56:05;95196.97;;;-1.21;100.00
2397;BME280;1209;48.410;9.054;2024-01-15T01:58:32;95197.63;;;-1.19;100.00
2397;BME280;1209;48.410;9.054;2024-01-15T02:00:58;95198.03;;;-1.23;100.00
2397;BME280;1209;48.410;9.054;2024-01-15T02:03:24;95193.59;;;-1.21;100.00
2397;BME280;1209;48.410;9.054;2024-01-15T02:05:50;95189.00;;;-1.18;100.00
2397;BME280;1209;48.410;9.054;2024-01-15T02:08:16;95199.00;;;-1.15;100.00
2397;BME280;1209;48.410;9.054;2024-01-15T02:10:42;95197.66;;;-1.09;100.00
2397;BME280;1209;48.410;9.054;2024-01-15T02:13:07;95191.28;;;-1.24;100.00
2397;BME280;1209;48.410;9.054;2024-01-15T02:15:32;95189.56;;;-1.14;100.00
2397;BME280;1209;48.410;9.054;2024-01-15T02:18:02;95186.31;;;-1.16;100.00
2397;BME280;1209;48.410;9.054;2024-01-15T02:20:27;95193.09;;;-1.06;100.00
2397;BME280;1209;48.410;9.054;2024-01-15T02:22:53;95182.78;;;-1.25;100.00
2397;BME280;1209;48.410;9.054;2024-01-15T02:25:18;95190.91;;;-1.20;100.00
2397;BME280;1209;48.410;9.054;2024-01-15T02:27:44;95178.78;;;-1.18;100.00
2397;BME280;1209;48.410;9.054;2024-01-15T02:30:11;95178.63;;;-1.16;100.00
2397;BME280;1209;48.410;9.054;2024-01-15T02:32:37;95179.59;;;-1.17;100.00
2397;BME280;1209;48.410;9.054;2024-01-15T02:35:02;95182.69;;;-1.14;100.00
2397;BME280;1209;48.410;9.054;2024-01-15T02:37:27;95183.63;;;-1.15;100.00
2397;BME280;1209;48.410;9.054;2024-01-15T02:39:53;95185.13;;;-1.12;100.00
2397;BME280;1209;48.410;9.054;2024-01-15T02:42:18;95185.50;;;-1.17;100.00
2397;BME280;1209;48.410;9.054;2024-01-15T02:44:43;95187.94;;;-1.15;100.00
2397;BME280;1209;48.410;9.054;2024-01-15T02:47:09;95178.53;;;-1.05;100.00
2397;BME280;1209;48.410;9.054;2024-01-15T02:49:34;95179.88;;;-1.11;100.00
2397;BME280;1209;48.410;9.054;2024-01-15T02:51:59;95182.84;;;-1.06;100.00
2397;BME280;1209;48.410;9.054;2024-01-15T02:54:24;95177.19;;;-1.00;100.00
2397;BME280;1209;48.410;9.054;2024-01-15T02:56:50;95183.13;;;-0.99;100.00
2397;BME280;1209;48.410;9.054;2024-01-15T02:59:15;95185.06;;;-0.91;100.00
2397;BME280;1209;48.410;9.054;2024-01-15T03:01:40;95175.75;;;-0.92;100.00
2397;BME280;1209;48.410;9.054;2024-01-15T03:04:06;95183.06;;;-0.88;100.00
2397;BME280;1209;48.410;9.054;2024-01-15T03:06:31;95192.34;;;-0.87;100.00
2397;BME280;1209;48.410;9.054;2024-01-15T03:08:56;95182.91;;;-0.86;100.00
2397;BME280;1209;48.410;9.054;2024-01-15T03:11:22;95177.13;;;-0.88;100.00
2397;BME280;1209;48.410;9.054;2024-01-15T03:13:47;95185.75;;;-0.89;100.00
2397;BME280;1209;48.410;9.054;2024-01-15T03:16:12;95185.06;;;-0.91;100.00
2397;BME280;1209;48.410;9.054;2024-01-15T03:18:37;95177.50;;;-0.93;100.00
2397;BME280;1209;48.410;9.054;2024-01-15T03:21:04;95177.41;;;-0.82;100.00
2397;BME280;1209;48.410;9.054;2024-01-15T03:23:30;95177.41;;;-0.82;100.00
2397;BME280;1209;48.410;9.054;2024-01-15T03:25:55;95174.84;;;-0.82;100.00
2397;BME280;1209;48.410;9.054;2024-01-15T03:28:20;95175.50;;;-0.80;100.00
2397;BME280;1209;48.410;9.054;2024-01-15T03:30:46;95180.78;;;-0.72;100.00
2397;BME280;1209;48.410;9.054;2024-01-15T03:33:11;95178.63;;;-0.76;100.00
2397;BME280;1209;48.410;9.054;2024-01-15T03:35:36;95179.41;;;-0.85;100.00
2397;BME280;1209;48.410;9.054;2024-01-15T03:38:01;95165.78;;;-0.86;100.00
2397;BME280;1209;48.410;9.054;2024-01-15T03:40:27;95169.03;;;-0.74;100.00
2397;BME280;1209;48.410;9.054;2024-01-15T03:42:53;95162.44;;;-0.77;100.00
2397;BME280;1209;48.410;9.054;2024-01-15T03:45:19;95166.88;;;-0.79;100.00
2397;BME280;1209;48.410;9.054;2024-01-15T03:47:44;95163.78;;;-0.82;100.00
2397;BME280;1209;48.410;9.054;2024-01-15T03:50:09;95157.69;;;-0.91;100.00
2397;BME280;1209;48.410;9.054;2024-01-15T03:52:34;95150.13;;;-0.92;100.00
2397;BME280;1209;48.410;9.054;2024-01-15T03:55:00;95153.50;;;-0.92;100.00
2397;BME280;1209;48.410;9.054;2024-01-15T03:57:25;95160.75;;;-0.97;100.00
2397;BME280;1209;48.410;9.054;2024-01-15T03:59:50;95153.13;;;-0.87;100.00
2397;BME280;1209;48.410;9.054;2024-01-15T04:02:16;95160.00;;;-0.78;100.00
2397;BME280;1209;48.410;9.054;2024-01-15T04:04:42;95149.56;;;-0.96;100.00
2397;BME280;1209;48.410;9.054;2024-01-15T04:07:11;95152.72;;;-0.83;100.00
2397;BME280;1209;48.410;9.054;2024-01-15T04:09:37;95146.09;;;-0.85;100.00
2397;BME280;1209;48.410;9.054;2024-01-15T04:12:03;95148.53;;;-0.84;100.00
2397;BME280;1209;48.410;9.054;2024-01-15T04:14:28;95151.75;;;-0.91;100.00
2397;BME280;1209;48.410;9.054;2024-01-15T04:16:54;95148.41;;;-0.82;100.00
2397;BME280;1209;48.410;9.054;2024-01-15T04:19:19;95143.50;;;-0.95;100.00
2397;BME280;1209;48.410;9.054;2024-01-15T04:21:44;95145.16;;;-0.94;100.00
2397;BME280;1209;48.410;9.054;2024-01-15T04:24:09;95156.09;;;-0.82;100.00
2397;BME280;1209;48.410;9.054;2024-01-15T04:26:35;95149.06;;;-0.90;100.00
2397;BME280;1209;48.410;9.054;2024-01-15T04:29:00;95151.19;;;-0.95;100.00
2397;BME280;1209;48.410;9.054;2024-01-15T04:31:25;95150.81;;;-0.90;100.00
2397;BME280;1209;48.410;9.054;2024-01-15T04:33:52;95150.94;;;-0.92;100.00
2397;BME280;1209;48.410;9.054;2024-01-15T04:36:17;95153.88;;;-1.06;100.00
2397;BME280;1209;48.410;9.054;2024-01-15T04:38:43;95159.47;;;-0.82;100.00
2397;BME280;1209;48.410;9.054;2024-01-15T04:41:12;95160.94;;;-0.89;100.00
2397;BME280;1209;48.410;9.054;2024-01-15T04:43:38;95164.16;;;-0.87;100.00
2397;BME280;1209;48.410;9.054;2024-01-15T04:46:05;95166.22;;;-0.71;100.00
2397;BME280;1209;48.410;9.054;2024-01-15T04:48:30;95165.81;;;-0.76;100.00
2397;BME280;1209;48.410;9.054;2024-01-15T04:50:56;95155.97;;;-0.71;100.00
2397;BME280;1209;48.410;9.054;2024-01-15T04:53:21;95160.81;;;-0.78;100.00
2397;BME280;1209;48.410;9.054;2024-01-15T04:55:46;95153.78;;;-0.85;100.00
2397;BME280;1209;48.410;9.054;2024-01-15T04:58:11;95144.34;;;-0.85;100.00
2397;BME280;1209;48.410;9.054;2024-01-15T05:00:37;95162.97;;;-0.73;100.00
2397;BME280;1209;48.410;9.054;2024-01-15T05:03:03;95156.50;;;-0.87;100.00
2397;BME280;1209;48.410;9.054;2024-01-15T05:05:28;95160.66;;;-0.86;100.00
2397;BME280;1209;48.410;9.054;2024-01-15T05:07:53;95161.19;;;-0.92;100.00
2397;BME280;1209;48.410;9.054;2024-01-15T05:10:19;95152.84;;;-0.94;100.00
2397;BME280;1209;48.410;9.054;2024-01-15T05:12:44;95157.84;;;-0.83;100.00
2397;BME280;1209;48.410;9.054;2024-01-15T05:15:09;95158.38;;;-0.89;100.00
2397;BME280;1209;48.410;9.054;2024-01-15T05:17:34;95158.06;;;-0.96;100.00
2397;BME280;1209;48.410;9.054;2024-01-15T05:20:00;95153.50;;;-0.92;100.00
2397;BME280;1209;48.410;9.054;2024-01-15T05:22:25;95144.50;;;-0.77;100.00
2397;BME280;1209;48.410;9.054;2024-01-15T05:24:50;95144.91;;;-0.81;100.00
2397;BME280;1209;48.410;9.054;2024-01-15T05:27:16;95147.44;;;-0.91;100.00
2397;BME280;1209;48.410;9.054;2024-01-15T05:29:41;95144.09;;;-0.82;100.00
2397;BME280;1209;48.410;9.054;2024-01-15T05:32:06;95134.66;;;-0.81;100.00
2397;BME280;1209;48.410;9.054;2024-01-15T05:34:31;95122.78;;;-0.73;100.00
2397;BME280;1209;48.410;9.054;2024-01-15T05:36:57;95122.66;;;-0.71;100.00
2397;BME280;1209;48.410;9.054;2024-01-15T05:39:22;95117.78;;;-0.74;100.00
2397;BME280;1209;48.410;9.054;2024-01-15T05:41:47;95117.13;;;-0.76;100.00
2397;BME280;1209;48.410;9.054;2024-01-15T05:44:12;95116.72;;;-0.72;100.00
2397;BME280;1209;48.410;9.054;2024-01-15T05:46:38;95119.81;;;-0.78;100.00
2397;BME280;1209;48.410;9.054;2024-01-15T05:49:03;95121.84;;;-0.72;100.00
2397;BME280;1209;48.410;9.054;2024-01-15T05:51:29;95112.00;;;-0.76;100.00
2397;BME280;1209;48.410;9.054;2024-01-15T05:53:54;95116.56;;;-0.80;100.00
2397;BME280;1209;48.410;9.054;2024-01-15T05:56:19;95121.56;;;-0.78;100.00
2397;BME280;1209;48.410;9.054;2024-01-15T05:58:45;95115.63;;;-0.79;100.00
2397;BME280;1209;48.410;9.054;2024-01-15T06:01:10;95117.25;;;-0.87;100.00
2397;BME280;1209;48.410;9.054;2024-01-15T06:03:35;95124.13;;;-0.78;100.00
2397;BME280;1209;48.410;9.054;2024-01-15T06:06:00;95129.53;;;-0.81;100.00
2397;BME280;1209;48.410;9.054;2024-01-15T06:08:26;95116.31;;;-0.77;100.00
2397;BME280;1209;48.410;9.054;2024-01-15T06:10:52;95121.56;;;-0.78;100.00
2397;BME280;1209;48.410;9.054;2024-01-15T06:13:18;95125.75;;;-0.68;100.00
2397;BME280;1209;48.410;9.054;2024-01-15T06:15:43;95124.94;;;-0.68;100.00
2397;BME280;1209;48.410;9.054;2024-01-15T06:18:08;95117.66;;;-0.73;100.00
2397;BME280;1209;48.410;9.054;2024-01-15T06:20:34;95121.56;;;-0.88;100.00
2397;BME280;1209;48.410;9.054;2024-01-15T06:22:59;95112.53;;;-0.73;100.00
2397;BME280;1209;48.410;9.054;2024-01-15T06:25:24;95119.81;;;-0.68;100.00
2397;BME280;1209;48.410;9.054;2024-01-15T06:27:49;95113.59;;;-0.75;100.00
2397;BME280;1209;48.410;9.054;2024-01-15T06:30:15;95123.59;;;-0.72;100.00
2397;BME280;1209;48.410;9.054;2024-01-15T06:32:40;95115.22;;;-0.65;100.00
2397;BME280;1209;48.410;9.054;2024-01-15T06:35:06;95107.13;;;-0.60;100.00
2397;BME280;1209;48.410;9.054;2024-01-15T06:37:31;95107.00;;;-0.58;100.00
2397;BME280;1209;48.410;9.054;2024-01-15T06:39:57;95108.34;;;-0.64;100.00
2397;BME280;1209;48.410;9.054;2024-01-15T06:42:23;95113.34;;;-0.63;100.00
2397;BME280;1209;48.410;9.054;2024-01-15T06:44:48;95111.72;;;-0.64;100.00
2397;BME280;1209;48.410;9.054;2024-01-15T06:47:14;95099.31;;;-0.68;100.00
2397;BME280;1209;48.410;9.054;2024-01-15T06:49:39;95098.50;;;-0.59;100.00
2397;BME280;1209;48.410;9.054;2024-01-15T06:52:05;95097.81;;;-0.61;100.00
2397;BME280;1209;48.410;9.054;2024-01-15T06:54:31;95087.84;;;-0.54;100.00
2397;BME280;1209;48.410;9.054;2024-01-15T06:56:56;95098.50;;;-0.59;100.00
2397;BME280;1209;48.410;9.054;2024-01-15T06:59:22;95087.03;;;-0.65;100.00
2397;BME280;1209;48.410;9.054;2024-01-15T07:01:47;95090.69;;;-0.67;100.00
2397;BME280;1209;48.410;9.054;2024-01-15T07:04:12;95087.97;;;-0.56;100.00
2397;BME280;1209;48.410;9.054;2024-01-15T07:06:38;95089.31;;;-0.61;100.00
2397;BME280;1209;48.410;9.054;2024-01-15T07:09:04;95084.72;;;-0.58;100.00
2397;BME280;1209;48.410;9.054;2024-01-15T07:11:29;95082.97;;;-0.57;100.00
2397;BME280;1209;48.410;9.054;2024-01-15T07:13:54;95087.84;;;-0.54;100.00
2397;BME280;1209;48.410;9.054;2024-01-15T07:16:19;95069.09;;;-0.45;100.00
2397;BME280;1209;48.410;9.054;2024-01-15T07:18:45;95071.53;;;-0.44;100.00
2397;BME280;1209;48.410;9.054;2024-01-15T07:21:10;95073.28;;;-0.44;100.00
2397;BME280;1209;48.410;9.054;2024-01-15T07:23:35;95070.16;;;-0.48;100.00
2397;BME280;1209;48.410;9.054;2024-01-15T07:26:01;95077.47;;;-0.43;100.00
2397;BME280;1209;48.410;9.054;2024-01-15T07:28:28;95071.66;;;-0.45;100.00
2397;BME280;1209;48.410;9.054;2024-01-15T07:30:54;95058.28;;;-0.49;100.00
2397;BME280;1209;48.410;9.054;2024-01-15T07:33:19;95059.78;;;-0.46;100.00
2397;BME280;1209;48.410;9.054;2024-01-15T07:35:45;95056.13;;;-0.44;100.00
2397;BME280;1209;48.410;9.054;2024-01-15T07:38:10;95040.47;;;-0.50;100.00
2397;BME280;1209;48.410;9.054;2024-01-15T07:40:37;95039.53;;;-0.40;100.00
2397;BME280;1209;48.410;9.054;2024-01-15T07:43:02;95042.38;;;-0.43;100.00
2397;BME280;1209;48.410;9.054;2024-01-15T07:45:28;95038.69;;;-0.30;100.00
2397;BME280;1209;48.410;9.054;2024-01-15T07:47:53;95040.03;;;-0.26;100.00
2397;BME280;1209;48.410;9.054;2024-01-15T07:50:18;95033.16;;;-0.26;100.00
2397;BME280;1209;48.410;9.054;2024-01-15T07:52:44;95037.75;;;-0.29;100.00
2397;BME280;1209;48.410;9.054;2024-01-15T07:55:09;95034.34;;;-0.20;100.00
2397;BME280;1209;48.410;9.054;2024-01-15T07:57:34;95042.44;;;-0.15;100.00
2397;BME280;1209;48.410;9.054;2024-01-15T08:00:01;95044.19;;;-0.16;100.00
2397;BME280;1209;48.410;9.054;2024-01-15T08:02:26;95050.38;;;-0.09;100.00
2397;BME280;1209;48.410;9.054;2024-01-15T08:04:52;95054.81;;;-0.01;100.00
2397;BME280;1209;48.410;9.054;2024-01-15T08:07:17;95049.13;;;0.05;100.00
2397;BME280;1209;48.410;9.054;2024-01-15T08:09:43;95052.75;;;0.12;100.00
2397;BME280;1209;48.410;9.054;2024-01-15T08:12:08;95042.53;;;0.03;100.00
2397;BME280;1209;48.410;9.054;2024-01-15T08:14:35;95051.81;;;0.13;100.00
2397;BME280;1209;48.410;9.054;2024-01-15T08:17:00;95041.97;;;0.09;100.00
2397;BME280;1209;48.410;9.054;2024-01-15T08:19:26;95041.25;;;0.16;100.00
2397;BME280;1209;48.410;9.054;2024-01-15T08:21:52;95038.44;;;0.10;100.00
2397;BME280;1209;48.410;9.054;2024-01-15T08:24:18;95033.03;;;0.13;100.00
2397;BME280;1209;48.410;9.054;2024-01-15T08:26:43;95031.66;;;0.18;100.00
2397;BME280;1209;48.410;9.054;2024-01-15T08:29:08;95026.22;;;0.21;100.00
2397;BME280;1209;48.410;9.054;2024-01-15T08:31:34;95032.03;;;0.23;100.00
2397;BME280;1209;48.410;9.054;2024-01-15T08:33:59;95024.75;;;0.19;100.00
2397;BME280;1209;48.410;9.054;2024-01-15T08:36:27;95037.59;;;0.19;100.00
2397;BME280;1209;48.410;9.054;2024-01-15T08:38:53;95044.06;;;0.23;100.00
2397;BME280;1209;48.410;9.054;2024-01-15T08:41:18;95039.44;;;0.26;100.00
2397;BME280;1209;48.410;9.054;2024-01-15T08:43:44;95032.19;;;0.22;100.00
2397;BME280;1209;48.410;9.054;2024-01-15T08:46:09;95044.44;;;0.28;100.00
2397;BME280;1209;48.410;9.054;2024-01-15T08:48:34;95042.69;;;0.28;100.00
2397;BME280;1209;48.410;9.054;2024-01-15T08:50:59;95057.75;;;0.41;100.00
2397;BME280;1209;48.410;9.054;2024-01-15T08:53:25;95062.78;;;0.33;100.00
2397;BME280;1209;48.410;9.054;2024-01-15T08:55:50;95057.06;;;0.49;100.00
2397;BME280;1209;48.410;9.054;2024-01-15T08:58:16;95060.59;;;0.38;100.00
2397;BME280;1209;48.410;9.054;2024-01-15T09:00:41;95051.16;;;0.39;100.00
2397;BME280;1209;48.410;9.054;2024-01-15T09:03:07;95056.00;;;0.42;100.00
2397;BME280;1209;48.410;9.054;2024-01-15T09:05:33;95051.38;;;0.45;100.00
2397;BME280;1209;48.410;9.054;2024-01-15T09:07:59;95061.09;;;0.51;100.00
2397;BME280;1209;48.410;9.054;2024-01-15T09:10:24;95059.34;;;0.52;100.00
2397;BME280;1209;48.410;9.054;2024-01-15T09:12:50;95050.16;;;0.49;100.00
2397;BME280;1209;48.410;9.054;2024-01-15T09:15:15;95047.31;;;0.52;100.00
2397;BME280;1209;48.410;9.054;2024-01-15T09:17:40;95041.22;;;0.53;100.00
2397;BME280;1209;48.410;9.054;2024-01-15T09:20:06;95037.41;;;0.57;100.00
2397;BME280;1209;48.410;9.054;2024-01-15T09:22:32;95026.34;;;0.57;100.00
2397;BME280;1209;48.410;9.054;2024-01-15T09:24:58;95023.47;;;0.60;100.00
2397;BME280;1209;48.410;9.054;2024-01-15T09:27:24;95032.28;;;0.57;100.00
2397;BME280;1209;48.410;9.054;2024-01-15T09:29:51;95031.84;;;0.62;100.00
2397;BME280;1209;48.410;9.054;2024-01-15T09:32:16;95016.44;;;0.62;100.00
2397;BME280;1209;48.410;9.054;2024-01-15T09:34:42;95020.75;;;0.61;100.00
2397;BME280;1209;48.410;9.054;2024-01-15T09:37:07;95023.84;;;0.65;100.00
2397;BME280;1209;48.410;9.054;2024-01-15T09:39:32;95023.28;;;0.71;100.00
2397;BME280;1209;48.410;9.054;2024-01-15T09:41:58;95012.41;;;0.77;100.00
2397;BME280;1209;48.410;9.054;2024-01-15T09:44:25;95020.13;;;0.77;100.00
2397;BME280;1209;48.410;9.054;2024-01-15T09:46:51;95025.47;;;0.84;100.00
2397;BME280;1209;48.410;9.054;2024-01-15T09:49:17;95024.44;;;0.94;100.00
2397;BME280;1209;48.410;9.054;2024-01-15T09:51:43;95025.56;;;0.92;100.00
2397;BME280;1209;48.410;9.054;2024-01-15T09:54:09;95019.91;;;1.06;100.00
2397;BME280;1209;48.410;9.054;2024-01-15T09:56:35;95024.41;;;1.04;100.00
2397;BME280;1209;48.410;9.054;2024-01-15T09:59:00;95020.59;;;1.08;100.00
2397;BME280;1209;48.410;9.054;2024-01-15T10:01:26;95017.28;;;1.16;100.00
2397;BME280;1209;48.410;9.054;2024-01-15T10:03:51;95012.88;;;1.08;100.00
2397;BME280;1209;48.410;9.054;2024-01-15T10:06:18;95005.81;;;1.10;100.00
2397;BME280;1209;48.410;9.054;2024-01-15T10:08:48;94993.78;;;1.11;100.00
2397;BME280;1209;48.410;9.054;2024-01-15T10:11:13;95000.38;;;1.13;100.00
2397;BME280;1209;48.410;9.054;2024-01-15T10:13:39;95000.28;;;1.23;100.00
2397;BME280;1209;48.410;9.054;2024-01-15T10:16:05;94986.28;;;1.17;100.00
2397;BME280;1209;48.410;9.054;2024-01-15T10:18:31;94976.34;;;1.22;100.00
2397;BME280;1209;48.410;9.054;2024-01-15T10:20:57;94983.56;;;1.19;100.00
2397;BME280;1209;48.410;9.054;2024-01-15T10:23:23;94974.06;;;1.19;100.00
2397;BME280;1209;48.410;9.054;2024-01-15T10:25:48;94973.03;;;1.30;100.00
2397;BME280;1209;48.410;9.054;2024-01-15T10:28:14;94962.59;;;1.32;100.00
2397;BME280;1209;48.410;9.054;2024-01-15T10:30:39;94963.97;;;1.44;100.00
2397;BME280;1209;48.410;9.054;2024-01-15T10:33:04;94965.06;;;1.41;100.00
2397;BME280;1209;48.410;9.054;2024-01-15T10:35:31;94963.59;;;1.39;100.00
2397;BME280;1209;48.410;9.054;2024-01-15T10:37:58;94971.84;;;1.42;100.00
2397;BME280;1209;48.410;9.054;2024-01-15T10:40:23;94969.94;;;1.44;100.00
2397;BME280;1209;48.410;9.054;2024-01-15T10:42:48;94960.22;;;1.38;100.00
2397;BME280;1209;48.410;9.054;2024-01-15T10:45:14;94968.09;;;1.37;100.00
2397;BME280;1209;48.410;9.054;2024-01-15T10:47:40;94958.53;;;1.47;100.00
2397;BME280;1209;48.410;9.054;2024-01-15T10:50:06;94955.31;;;1.45;100.00
2397;BME280;1209;48.410;9.054;2024-01-15T10:52:34;94958.53;;;1.47;100.00
2397;BME280;1209;48.410;9.054;2024-01-15T10:55:00;94959.84;;;1.51;100.00
2397;BME280;1209;48.410;9.054;2024-01-15T10:57:28;94953.28;;;1.56;100.00
2397;BME280;1209;48.410;9.054;2024-01-15T10:59:54;94957.31;;;1.59;100.00
2397;BME280;1209;48.410;9.054;2024-01-15T11:02:20;94961.00;;;1.56;100.00
2397;BME280;1209;48.410;9.054;2024-01-15T11:04:45;94961.81;;;1.57;100.00
2397;BME280;1209;48.410;9.054;2024-01-15T11:07:11;94965.53;;;1.63;100.00
2397;BME280;1209;48.410;9.054;2024-01-15T11:09:37;94968.09;;;1.63;100.00
2397;BME280;1209;48.410;9.054;2024-01-15T11:12:11;94951.81;;;1.54;100.00
2397;BME280;1209;48.410;9.054;2024-01-15T11:14:47;94973.88;;;1.56;100.00
2397;BME280;1209;48.410;9.054;2024-01-15T11:17:14;94977.25;;;1.57;100.00
2397;BME280;1209;48.410;9.054;2024-01-15T11:19:47;94969.72;;;1.64;100.00
2397;BME280;1209;48.410;9.054;2024-01-15T11:25:02;94979.31;;;1.53;100.00
2397;BME280;1209;48.410;9.054;2024-01-15T11:27:44;94970.03;;;1.61;100.00
2397;BME280;1209;48.410;9.054;2024-01-15T11:30:12;94969.25;;;1.68;100.00
2397;BME280;1209;48.410;9.054;2024-01-15T11:32:38;94978.41;;;1.63;100.00
2397;BME280;1209;48.410;9.054;2024-01-15T11:35:12;94975.31;;;1.59;100.00
2397;BME280;1209;48.410;9.054;2024-01-15T11:42:45;94972.66;;;1.69;100.00
2397;BME280;1209;48.410;9.054;2024-01-15T11:45:11;94968.97;;;1.71;100.00
2397;BME280;1209;48.410;9.054;2024-01-15T11:50:33;94966.69;;;1.68;100.00
2397;BME280;1209;48.410;9.054;2024-01-15T11:53:00;94967.81;;;1.66;100.00
2397;BME280;1209;48.410;9.054;2024-01-15T11:55:29;94967.16;;;1.64;100.00
2397;BME280;1209;48.410;9.054;2024-01-15T11:57:57;94961.25;;;1.71;100.00
2397;BME280;1209;48.410;9.054;2024-01-15T12:00:23;94970.69;;;1.63;100.00
2397;BME280;1209;48.410;9.054;2024-01-15T12:02:49;94971.50;;;1.63;100.00
2397;BME280;1209;48.410;9.054;2024-01-15T12:05:17;94960.81;;;1.50;100.00
2397;BME280;1209;48.410;9.054;2024-01-15T12:07:44;94967.88;;;1.48;100.00
2397;BME280;1209;48.410;9.054;2024-01-15T12:10:14;94959.03;;;1.50;100.00
2397;BME280;1209;48.410;9.054;2024-01-15T12:12:53;94962.22;;;1.44;100.00
2397;BME280;1209;48.410;9.054;2024-01-15T12:15:20;94959.13;;;1.41;100.00
2397;BME280;1209;48.410;9.054;2024-01-15T12:17:45;94959.13;;;1.41;100.00
2397;BME280;1209;48.410;9.054;2024-01-15T12:20:12;94955.53;;;1.34;100.00
2397;BME280;1209;48.410;9.054;2024-01-15T12:22:38;94949.84;;;1.22;100.00
2397;BME280;1209;48.410;9.054;2024-01-15T12:25:03;94943.69;;;1.15;100.00
2397;BME280;1209;48.410;9.054;2024-01-15T12:27:29;94944.63;;;1.14;100.00
2397;BME280;1209;48.410;9.054;2024-01-15T12:29:55;94941.09;;;1.15;100.00
2397;BME280;1209;48.410;9.054;2024-01-15T12:32:20;94937.13;;;1.20;100.00
2397;BME280;1209;48.410;9.054;2024-01-15T12:34:49;94945.09;;;1.35;100.00
2397;BME280;1209;48.410;9.054;2024-01-15T12:37:14;94953.06;;;1.24;100.00
2397;BME280;1209;48.410;9.054;2024-01-15T12:39:43;94941.66;;;1.26;100.00
2397;BME280;1209;48.410;9.054;2024-01-15T12:42:09;94942.69;;;1.34;100.00
2397;BME280;1209;48.410;9.054;2024-01-15T12:44:35;94939.44;;;1.32;100.00
2397;BME280;1209;48.410;9.054;2024-01-15T12:47:01;94946.22;;;1.33;100.00
2397;BME280;1209;48.410;9.054;2024-01-15T12:49:26;94948.72;;;1.24;100.00
2397;BME280;1209;48.410;9.054;2024-01-15T12:52:01;94950.91;;;1.37;100.00
2397;BME280;1209;48.410;9.054;2024-01-15T12:54:26;94946.88;;;1.35;100.00
2397;BME280;1209;48.410;9.054;2024-01-15T12:56:52;94946.88;;;1.35;100.00
2397;BME280;1209;48.410;9.054;2024-01-15T12:59:18;94937.38;;;1.35;100.00
2397;BME280;1209;48.410;9.054;2024-01-15T13:01:44;94942.38;;;1.37;100.00
2397;BME280;1209;48.410;9.054;2024-01-15T13:04:09;94936.88;;;1.32;100.00
2397;BME280;1209;48.410;9.054;2024-01-15T13:06:35;94947.88;;;1.42;100.00
2397;BME280;1209;48.410;9.054;2024-01-15T13:09:00;94941.66;;;1.26;100.00
2397;BME280;1209;48.410;9.054;2024-01-15T13:11:27;94940.06;;;1.25;100.00
2397;BME280;1209;48.410;9.054;2024-01-15T13:13:52;94938.78;;;1.30;100.00
2397;BME280;1209;48.410;9.054;2024-01-15T13:16:18;94951.84;;;1.36;100.00
2397;BME280;1209;48.410;9.054;2024-01-15T13:18:44;94947.16;;;1.32;100.00